To NAV CANADA Home Page Login to a new session Search on AWWS site Feedback and Comments Disclaimer Vers la page française équivalente Tips FAQ What's new on the site To the Forecasts and Observations / NOTAM section To "File a Flight Plan" website Publications and other links Update of the User's profile FIC Telephone Numbers My Weather Data Folder Route Weather Data Regional Weather Data Local Weather Data To the Forecasts and Observations / NOTAM section
Request Generated 04/25/2014 at 02:23:59 UTC . Weather information available at that time is displayed.

METAR/TAF

DEASE LAKE/BC    (show WxCam)

METAR CYDL 250200Z AUTO 05006KT 030V100 9SM OVC085 07/M04 A2961 RMK
SLP046=
METAR CYDL 250100Z AUTO VRB02KT 9SM FEW110 07/M06 A2962 RMK SLP048=
METAR CYDL 250000Z AUTO 13006G16KT 070V160 9SM SCT070 BKN084 08/M05
A2962 RMK SLP048 DENSITY ALT 2700FT=

*** REMARK        : Forecast period has ended; this was the last TAF issued
*** REMARQUE : La période de prévision est échue; ceci était le dernier TAF qui a été émis
TAF CYDL 242338Z 2500/2502 07008KT P6SM BKN040 TEMPO 2500/2502 P6SM
-SHRA
RMK FCST BASED ON AUTO OBS. NXT FCST WILL BE ISSUED AT 251545Z=
Your time UTC time
Weather data provided by Environment Canada and NAV CANADA